createdAt,value
2022-10-23T00:04:19.452Z,2.13
2022-10-23T00:09:50.707Z,1.98
2022-10-23T00:15:23.082Z,2.30
2022-10-23T00:20:54.207Z,1.90
2022-10-23T00:26:24.970Z,1.90
2022-10-23T00:31:55.975Z,2.47
2022-10-23T00:37:27.046Z,2.30
2022-10-23T00:42:57.912Z,1.92
2022-10-23T00:48:29.592Z,2.10
2022-10-23T00:54:22.959Z,1.73
2022-10-23T00:59:52.333Z,2.25
2022-10-23T01:05:38.045Z,1.90
2022-10-23T01:11:23.746Z,1.90
2022-10-23T01:17:21.161Z,2.20
2022-10-23T01:23:15.180Z,2.03
2022-10-23T01:29:05.486Z,1.90
2022-10-23T01:34:59.560Z,1.90
2022-10-23T01:40:57.812Z,1.63
2022-10-23T01:46:30.319Z,1.92
2022-10-23T01:52:04.102Z,1.83
2022-10-23T01:57:35.982Z,1.88
2022-10-23T02:03:07.668Z,1.90
2022-10-23T02:08:39.021Z,2.10
2022-10-23T02:14:21.804Z,1.75
2022-10-23T02:20:06.257Z,2.00
2022-10-23T02:25:44.360Z,1.65
2022-10-23T02:31:18.807Z,1.90
2022-10-23T02:36:49.899Z,1.70
2022-10-23T02:42:36.991Z,1.63
2022-10-23T02:48:13.570Z,2.20
2022-10-23T02:53:44.665Z,1.80
2022-10-23T02:59:31.285Z,1.88
2022-10-23T03:05:04.049Z,1.65
2022-10-23T03:10:37.046Z,2.10
2022-10-23T03:16:10.480Z,1.80
2022-10-23T03:21:41.602Z,1.98
2022-10-23T03:27:13.607Z,2.35
2022-10-23T03:32:44.756Z,2.10
2022-10-23T03:38:16.322Z,1.83
2022-10-23T03:43:47.243Z,1.95
2022-10-23T03:49:18.532Z,1.80
2022-10-23T03:54:49.834Z,1.65
2022-10-23T04:00:22.159Z,2.00
2022-10-23T04:05:53.474Z,1.90
2022-10-23T04:11:26.455Z,2.10
2022-10-23T04:16:57.921Z,2.13
2022-10-23T04:22:28.924Z,1.75
2022-10-23T04:27:59.955Z,1.85
2022-10-23T04:33:31.134Z,1.60
2022-10-23T04:39:03.571Z,1.70
2022-10-23T04:44:34.905Z,2.33
2022-10-23T04:50:07.205Z,2.00
2022-10-23T04:55:59.063Z,1.80
2022-10-23T05:01:41.198Z,1.55
2022-10-23T05:07:13.778Z,1.95
2022-10-23T05:13:02.086Z,2.45
2022-10-23T05:18:36.404Z,1.98
2022-10-23T05:24:08.418Z,1.75
2022-10-23T05:29:39.644Z,1.90
2022-10-23T05:35:17.152Z,3.42
2022-10-23T05:40:53.340Z,1.83
2022-10-23T05:46:28.097Z,1.70
2022-10-23T05:52:16.868Z,1.98
2022-10-23T05:58:08.273Z,1.73
2022-10-23T06:04:12.139Z,1.70
2022-10-23T06:10:15.665Z,1.60
2022-10-23T06:15:50.340Z,2.00
2022-10-23T06:21:25.129Z,1.48
2022-10-23T06:26:57.663Z,1.80
2022-10-23T06:32:55.053Z,1.80
2022-10-23T06:38:26.449Z,1.83
2022-10-23T06:49:53.139Z,1.90
2022-10-23T06:55:24.700Z,1.67
2022-10-23T07:00:56.252Z,1.60
2022-10-23T07:06:27.722Z,1.70
2022-10-23T07:11:59.291Z,1.90
2022-10-23T07:17:44.308Z,1.63
2022-10-23T07:23:16.843Z,1.42
2022-10-23T07:28:51.815Z,1.35
2022-10-23T07:34:25.960Z,1.73
2022-10-23T07:40:15.188Z,1.58
2022-10-23T07:45:49.790Z,1.80
2022-10-23T07:51:29.779Z,1.65
2022-10-23T07:57:04.435Z,1.60
2022-10-23T08:02:49.990Z,1.17
2022-10-23T08:08:21.997Z,1.42
2022-10-23T08:13:56.638Z,1.52
2022-10-23T08:19:30.797Z,1.55
2022-10-23T08:25:03.563Z,1.60
2022-10-23T08:30:36.381Z,1.30
2022-10-23T08:36:17.757Z,1.70
2022-10-23T08:41:51.078Z,1.40
2022-10-23T08:47:37.764Z,1.30
2022-10-23T08:53:45.188Z,1.40
2022-10-23T08:59:33.726Z,1.40
2022-10-23T09:05:05.107Z,1.60
2022-10-23T09:11:14.812Z,1.00
2022-10-23T09:17:01.399Z,1.27
2022-10-23T09:22:32.808Z,1.38
2022-10-23T09:28:05.749Z,1.92
2022-10-23T09:33:40.150Z,5.82
2022-10-23T09:39:22.948Z,4.65
2022-10-23T09:44:55.699Z,3.60
2022-10-23T09:50:26.912Z,2.92
2022-10-23T09:56:03.569Z,2.00
2022-10-23T10:01:39.047Z,2.08
2022-10-23T10:07:33.413Z,1.90
2022-10-23T10:13:17.372Z,1.90
2022-10-23T10:18:53.798Z,1.48
2022-10-23T10:24:36.837Z,1.40
2022-10-23T10:30:22.215Z,1.70
2022-10-23T10:36:15.846Z,1.40
2022-10-23T10:42:20.004Z,1.48
2022-10-23T10:48:12.602Z,1.60
2022-10-23T10:54:11.200Z,1.63
2022-10-23T10:59:44.501Z,1.77
2022-10-23T11:05:42.160Z,1.42
2022-10-23T11:11:21.201Z,1.60
2022-10-23T11:16:59.992Z,1.63
2022-10-23T11:23:07.049Z,1.75
2022-10-23T11:28:59.338Z,1.98
2022-10-23T11:34:49.142Z,1.40
2022-10-23T11:40:24.276Z,1.60
2022-10-23T11:45:55.128Z,1.30
2022-10-23T11:51:29.443Z,1.63
2022-10-23T11:57:10.716Z,1.65
2022-10-23T12:02:43.259Z,1.42
2022-10-23T12:08:23.882Z,1.48
2022-10-23T12:13:55.108Z,1.70
2022-10-23T12:19:29.431Z,1.40
2022-10-23T12:25:24.149Z,1.63
2022-10-23T12:31:04.129Z,1.63
2022-10-23T12:37:15.551Z,1.50
2022-10-23T12:42:54.439Z,1.30
2022-10-23T12:48:25.608Z,1.50
2022-10-23T12:53:57.958Z,1.75
2022-10-23T12:59:37.382Z,2.70
2022-10-23T13:05:13.554Z,2.28
2022-10-23T13:10:45.019Z,1.55
2022-10-23T13:16:25.142Z,1.67
2022-10-23T13:21:57.292Z,2.03
2022-10-23T13:27:33.898Z,1.65
2022-10-23T13:33:25.232Z,1.70
2022-10-23T13:39:01.607Z,1.57
2022-10-23T13:44:32.782Z,2.80
2022-10-23T13:50:04.790Z,1.52
2022-10-23T13:55:36.805Z,1.90
2022-10-23T14:01:22.023Z,1.33
2022-10-23T14:06:58.800Z,1.60
2022-10-23T14:12:29.751Z,1.38
2022-10-23T14:18:04.567Z,1.42
2022-10-23T14:23:38.686Z,1.50
2022-10-23T14:29:10.326Z,1.48
2022-10-23T14:34:50.775Z,1.42
2022-10-23T14:40:22.088Z,1.50
2022-10-23T14:45:53.101Z,1.42
2022-10-23T14:51:26.447Z,1.70
2022-10-23T14:56:57.613Z,1.73
2022-10-23T15:02:28.594Z,1.50
2022-10-23T15:08:01.774Z,1.50
2022-10-23T15:19:04.288Z,1.70
2022-10-23T15:24:35.367Z,1.05
2022-10-23T15:30:06.989Z,1.35
2022-10-23T15:35:37.918Z,1.27
2022-10-23T15:41:15.631Z,1.10
2022-10-23T15:46:48.476Z,1.48
2022-10-23T15:52:19.287Z,1.40
2022-10-23T15:57:50.093Z,1.50
2022-10-23T16:03:21.061Z,1.25
2022-10-23T16:14:28.236Z,1.00
2022-10-23T16:19:59.421Z,1.27
2022-10-23T16:25:30.495Z,1.45
2022-10-23T16:31:02.274Z,1.50
2022-10-23T16:36:33.975Z,1.30
2022-10-23T16:42:32.119Z,1.17
2022-10-23T16:48:13.966Z,1.30
2022-10-23T16:53:46.435Z,1.50
2022-10-23T16:59:17.612Z,1.15
2022-10-23T17:04:48.837Z,1.25
2022-10-23T17:10:20.238Z,1.08
2022-10-23T17:15:51.960Z,1.13
2022-10-23T17:21:25.185Z,1.20
2022-10-23T17:26:57.332Z,1.35
2022-10-23T17:32:28.995Z,1.20
2022-10-23T17:38:00.282Z,1.20
2022-10-23T17:43:33.172Z,1.38
2022-10-23T17:49:06.134Z,1.23
2022-10-23T17:54:37.810Z,1.50
2022-10-23T18:00:10.407Z,1.50
2022-10-23T18:05:45.198Z,1.50
2022-10-23T18:11:26.530Z,1.67
2022-10-23T18:16:58.497Z,1.52
2022-10-23T18:22:30.725Z,1.50
2022-10-23T18:28:02.643Z,1.73
2022-10-23T18:33:36.624Z,1.60
2022-10-23T18:39:09.949Z,1.50
2022-10-23T18:44:47.074Z,1.50
2022-10-23T18:50:18.618Z,1.75
2022-10-23T18:55:50.461Z,1.80
2022-10-23T19:01:23.749Z,1.83
2022-10-23T19:06:55.302Z,1.50
2022-10-23T19:12:27.442Z,1.85
2022-10-23T19:18:00.273Z,1.50
2022-10-23T19:23:31.413Z,1.80
2022-10-23T19:29:02.821Z,1.83
2022-10-23T19:34:33.832Z,1.58
2022-10-23T19:40:09.250Z,2.10
2022-10-23T19:45:40.441Z,1.70
2022-10-23T19:51:36.222Z,1.80
2022-10-23T19:57:07.282Z,1.60
2022-10-23T20:02:38.513Z,1.55
2022-10-23T20:08:09.673Z,1.80
2022-10-23T20:13:40.629Z,2.20
2022-10-23T20:19:14.331Z,1.75
2022-10-23T20:24:45.691Z,1.50
2022-10-23T20:30:16.939Z,1.83
2022-10-23T20:35:48.205Z,1.90
2022-10-23T20:41:20.100Z,1.77
2022-10-23T20:46:51.372Z,1.40
2022-10-23T20:52:22.393Z,1.67
2022-10-23T20:57:53.634Z,1.67
2022-10-23T21:03:24.982Z,1.95
2022-10-23T21:08:57.705Z,1.70
2022-10-23T21:14:29.044Z,2.28
2022-10-23T21:19:59.842Z,2.05
2022-10-23T21:25:30.931Z,2.05
2022-10-23T21:31:04.288Z,2.08
2022-10-23T21:36:43.789Z,1.92
2022-10-23T21:42:27.078Z,1.90
2022-10-23T21:47:58.624Z,2.20
2022-10-23T21:53:34.114Z,2.10
2022-10-23T22:04:42.927Z,2.28
2022-10-23T22:10:14.465Z,2.00
2022-10-23T22:21:24.316Z,2.22
2022-10-23T22:26:56.295Z,2.30
2022-10-23T22:32:27.336Z,2.20
2022-10-23T22:37:58.213Z,1.90
2022-10-23T22:43:29.676Z,2.45
2022-10-23T22:49:00.764Z,2.58
2022-10-23T22:54:31.962Z,2.38
2022-10-23T23:00:04.060Z,2.47
2022-10-23T23:11:18.733Z,2.38
2022-10-23T23:16:49.836Z,2.53
2022-10-23T23:22:20.988Z,2.90
2022-10-23T23:27:51.935Z,3.03
2022-10-23T23:33:24.082Z,3.42
2022-10-23T23:38:56.951Z,3.15
2022-10-23T23:44:28.274Z,2.77
2022-10-23T23:49:59.248Z,3.13
2022-10-23T23:55:30.153Z,3.08
